createdAt,value
2022-11-23T00:00:43.820Z,8.47
2022-11-23T00:03:15.560Z,8.57
2022-11-23T00:05:43.978Z,8.38
2022-11-23T00:08:13.194Z,8.39
2022-11-23T00:10:41.062Z,8.36
2022-11-23T00:13:08.856Z,8.06
2022-11-23T00:15:36.768Z,7.92
2022-11-23T00:18:05.077Z,7.48
2022-11-23T00:20:33.081Z,7.39
2022-11-23T00:23:03.553Z,7.40
2022-11-23T00:25:32.697Z,7.32
2022-11-23T00:28:00.712Z,7.26
2022-11-23T00:30:29.071Z,7.29
2022-11-23T00:32:57.354Z,7.40
2022-11-23T00:35:25.259Z,7.54
2022-11-23T00:37:53.170Z,7.72
2022-11-23T00:40:22.477Z,7.92
2022-11-23T00:42:51.724Z,7.76
2022-11-23T00:45:19.746Z,7.73
2022-11-23T00:47:47.722Z,7.78
2022-11-23T00:50:15.626Z,7.86
2022-11-23T00:52:43.701Z,7.83
2022-11-23T00:55:11.536Z,7.82
2022-11-23T00:57:39.621Z,7.84
2022-11-23T01:00:09.813Z,7.87
2022-11-23T01:02:37.781Z,7.91
2022-11-23T01:05:05.854Z,7.90
2022-11-23T01:07:33.954Z,8.06
2022-11-23T01:10:01.820Z,7.94
2022-11-23T01:12:30.129Z,7.84
2022-11-23T01:14:57.981Z,7.80
2022-11-23T01:17:27.276Z,7.90
2022-11-23T01:19:55.411Z,8.06
2022-11-23T01:22:23.743Z,8.17
2022-11-23T01:24:52.097Z,8.26
2022-11-23T01:27:20.192Z,8.16
2022-11-23T01:29:48.156Z,8.32
2022-11-23T01:32:15.926Z,8.39
2022-11-23T01:34:44.944Z,8.38
2022-11-23T01:37:12.873Z,8.29
2022-11-23T01:39:40.742Z,8.36
2022-11-23T01:42:09.245Z,8.43
2022-11-23T01:44:39.606Z,8.54
2022-11-23T01:47:08.328Z,8.65
2022-11-23T01:49:37.698Z,8.66
2022-11-23T01:52:11.126Z,8.69
2022-11-23T01:54:41.093Z,8.76
2022-11-23T01:57:10.162Z,8.81
2022-11-23T01:59:38.667Z,8.93
2022-11-23T02:02:08.330Z,8.94
2022-11-23T02:04:40.339Z,8.88
2022-11-23T02:07:10.157Z,8.97
2022-11-23T02:09:38.487Z,8.93
2022-11-23T02:12:08.777Z,8.88
2022-11-23T02:14:37.348Z,8.88
2022-11-23T02:17:06.109Z,8.83
2022-11-23T02:19:39.296Z,8.83
2022-11-23T02:22:09.276Z,8.81
2022-11-23T02:24:41.397Z,8.76
2022-11-23T02:27:13.232Z,8.75
2022-11-23T02:29:41.109Z,8.91
2022-11-23T02:32:09.411Z,8.83
2022-11-23T02:34:37.500Z,8.95
2022-11-23T02:37:05.974Z,8.84
2022-11-23T02:39:35.812Z,8.81
2022-11-23T02:42:05.306Z,8.86
2022-11-23T02:44:40.986Z,8.68
2022-11-23T02:47:10.028Z,8.58
2022-11-23T02:49:42.553Z,8.41
2022-11-23T02:52:10.881Z,8.20
2022-11-23T02:54:39.105Z,8.28
2022-11-23T02:57:07.288Z,8.31
2022-11-23T02:59:36.747Z,8.37
2022-11-23T03:02:05.393Z,8.56
2022-11-23T03:04:33.872Z,8.44
2022-11-23T03:07:02.235Z,8.45
2022-11-23T03:09:31.309Z,8.39
2022-11-23T03:11:59.626Z,8.39
2022-11-23T03:14:29.547Z,8.33
2022-11-23T03:17:02.375Z,8.36
2022-11-23T03:19:35.980Z,8.42
2022-11-23T03:22:05.390Z,8.36
2022-11-23T03:24:33.548Z,8.36
2022-11-23T03:27:04.289Z,8.46
2022-11-23T03:29:32.529Z,8.52
2022-11-23T03:32:06.916Z,8.56
2022-11-23T03:34:35.369Z,8.60
2022-11-23T03:37:04.497Z,8.58
2022-11-23T03:39:33.198Z,8.48
2022-11-23T03:42:22.097Z,8.65
2022-11-23T03:44:50.169Z,8.54
2022-11-23T03:47:19.997Z,8.50
2022-11-23T03:49:48.318Z,8.50
2022-11-23T03:52:16.376Z,8.40
2022-11-23T03:54:47.559Z,8.59
2022-11-23T03:57:15.938Z,8.60
2022-11-23T03:59:44.104Z,8.47
2022-11-23T04:02:13.688Z,8.31
2022-11-23T04:04:50.758Z,8.32
2022-11-23T04:07:39.406Z,8.39
2022-11-23T04:10:08.198Z,8.43
2022-11-23T04:13:02.772Z,8.42
2022-11-23T04:15:33.093Z,8.47
2022-11-23T04:18:01.422Z,8.30
2022-11-23T04:20:30.897Z,8.26
2022-11-23T04:22:58.680Z,7.93
2022-11-23T04:25:28.548Z,7.90
2022-11-23T04:27:57.394Z,7.84
2022-11-23T04:30:25.986Z,7.74
2022-11-23T04:32:59.006Z,7.81
2022-11-23T04:35:27.895Z,7.72
2022-11-23T04:37:57.553Z,7.76
2022-11-23T04:40:28.999Z,7.87
2022-11-23T04:43:05.114Z,7.85
2022-11-23T04:45:38.598Z,7.84
2022-11-23T04:48:09.956Z,7.84
2022-11-23T04:50:40.747Z,7.88
2022-11-23T04:53:12.603Z,8.06
2022-11-23T04:55:47.411Z,8.10
2022-11-23T04:58:17.277Z,8.08
2022-11-23T05:00:47.456Z,7.97
2022-11-23T05:03:16.080Z,7.86
2022-11-23T05:05:44.536Z,7.80
2022-11-23T05:08:13.928Z,7.75
2022-11-23T05:10:56.917Z,7.99
2022-11-23T05:13:25.590Z,8.05
2022-11-23T05:15:53.709Z,8.12
2022-11-23T05:18:26.956Z,8.20
2022-11-23T05:20:55.373Z,8.06
2022-11-23T05:23:25.072Z,7.97
2022-11-23T05:25:54.766Z,7.95
2022-11-23T05:28:39.698Z,7.97
2022-11-23T05:31:09.200Z,7.96
2022-11-23T05:33:37.701Z,7.91
2022-11-23T05:36:06.929Z,8.05
2022-11-23T05:38:40.098Z,8.04
2022-11-23T05:41:13.908Z,8.08
2022-11-23T05:43:44.335Z,7.96
2022-11-23T05:46:17.450Z,7.99
2022-11-23T05:48:45.955Z,8.12
2022-11-23T05:51:14.837Z,8.11
2022-11-23T05:53:48.493Z,8.11
2022-11-23T05:56:25.976Z,8.16
2022-11-23T05:59:05.780Z,8.11
2022-11-23T06:01:36.684Z,8.14
2022-11-23T06:04:07.093Z,8.24
2022-11-23T06:06:41.314Z,8.17
2022-11-23T06:09:11.482Z,8.24
2022-11-23T06:11:44.668Z,8.33
2022-11-23T06:14:17.283Z,8.32
2022-11-23T06:16:47.431Z,8.15
2022-11-23T06:19:30.563Z,8.36
2022-11-23T06:21:59.631Z,8.42
2022-11-23T06:24:33.010Z,8.58
2022-11-23T06:27:23.656Z,8.49
2022-11-23T06:29:52.453Z,8.49
2022-11-23T06:32:22.166Z,8.47
2022-11-23T06:34:50.080Z,8.48
2022-11-23T06:37:18.624Z,8.25
2022-11-23T06:39:53.875Z,8.28
2022-11-23T06:42:39.398Z,8.33
2022-11-23T06:45:14.996Z,8.59
2022-11-23T06:47:43.989Z,8.66
2022-11-23T06:50:14.487Z,8.73
2022-11-23T06:52:45.063Z,8.71
2022-11-23T06:55:14.321Z,8.89
2022-11-23T06:57:42.572Z,8.77
2022-11-23T07:00:17.289Z,8.87
2022-11-23T07:02:45.577Z,8.83
2022-11-23T07:05:15.425Z,8.84
2022-11-23T07:07:44.184Z,8.80
2022-11-23T07:10:21.428Z,8.96
2022-11-23T07:12:53.571Z,9.10
2022-11-23T07:15:23.148Z,9.12
2022-11-23T07:17:53.167Z,8.80
2022-11-23T07:20:25.588Z,8.54
2022-11-23T07:23:00.651Z,8.46
2022-11-23T07:25:30.028Z,8.50
2022-11-23T07:27:57.986Z,8.57
2022-11-23T07:30:29.308Z,8.67
2022-11-23T07:33:00.337Z,8.68
2022-11-23T07:35:28.667Z,8.73
2022-11-23T07:37:56.451Z,8.89
2022-11-23T07:40:24.268Z,9.09
2022-11-23T07:42:53.483Z,9.33
2022-11-23T07:45:22.981Z,9.45
2022-11-23T07:48:00.316Z,9.49
2022-11-23T07:50:28.278Z,9.15
2022-11-23T07:52:56.168Z,9.19
2022-11-23T07:55:24.688Z,9.30
2022-11-23T07:57:57.588Z,9.45
2022-11-23T08:00:26.631Z,9.37
2022-11-23T08:03:25.602Z,9.54
2022-11-23T08:05:42.249Z,9.71
2022-11-23T08:08:10.174Z,9.74
2022-11-23T08:10:44.192Z,9.88
2022-11-23T08:13:15.801Z,9.63
2022-11-23T08:15:44.888Z,9.64
2022-11-23T08:18:14.294Z,9.80
2022-11-23T08:20:41.907Z,9.70
2022-11-23T08:23:10.217Z,9.54
2022-11-23T08:25:38.478Z,9.44
2022-11-23T08:28:06.452Z,9.45
2022-11-23T08:30:36.161Z,9.66
2022-11-23T08:33:04.152Z,9.87
2022-11-23T08:35:33.159Z,9.95
2022-11-23T08:38:01.468Z,9.85
2022-11-23T08:40:29.612Z,10.01
2022-11-23T08:42:57.580Z,10.19
2022-11-23T08:45:26.595Z,10.45
2022-11-23T08:48:00.978Z,10.70
2022-11-23T08:50:29.612Z,11.09
2022-11-23T08:52:57.636Z,11.26
2022-11-23T08:55:26.978Z,11.22
2022-11-23T08:57:56.591Z,11.29
2022-11-23T09:00:25.367Z,11.24
2022-11-23T09:02:53.455Z,11.38
2022-11-23T09:05:24.636Z,11.56
2022-11-23T09:07:52.530Z,11.86
2022-11-23T09:10:22.556Z,11.84
2022-11-23T09:12:50.666Z,12.05
2022-11-23T09:15:18.751Z,12.31
2022-11-23T09:17:46.631Z,12.27
2022-11-23T09:20:14.641Z,12.77
2022-11-23T09:22:44.366Z,12.89
2022-11-23T09:25:12.457Z,12.66
2022-11-23T09:27:40.515Z,12.73
2022-11-23T09:30:08.994Z,13.04
2022-11-23T09:32:37.066Z,14.29
2022-11-23T09:35:05.217Z,14.36
2022-11-23T09:37:33.208Z,15.02
2022-11-23T09:40:02.364Z,15.78
2022-11-23T09:42:47.568Z,16.11
2022-11-23T09:45:24.363Z,15.95
2022-11-23T09:48:09.964Z,15.61
2022-11-23T09:50:45.474Z,15.38
2022-11-23T09:53:15.811Z,15.65
2022-11-23T09:55:46.739Z,15.92
2022-11-23T09:58:16.377Z,15.47
2022-11-23T10:00:45.701Z,15.22
2022-11-23T10:03:15.905Z,15.56
2022-11-23T10:05:48.586Z,15.88
2022-11-23T10:08:20.611Z,15.95
2022-11-23T10:10:54.870Z,16.07
2022-11-23T10:13:36.643Z,17.90
2022-11-23T10:16:12.645Z,18.10
2022-11-23T10:18:44.851Z,18.25
2022-11-23T10:21:18.121Z,18.48
2022-11-23T10:23:54.618Z,18.55
2022-11-23T10:26:27.682Z,17.85
2022-11-23T10:28:56.557Z,17.37
2022-11-23T10:31:25.863Z,18.71
2022-11-23T10:33:56.787Z,19.40
2022-11-23T10:36:27.508Z,19.25
2022-11-23T10:38:58.727Z,19.47
2022-11-23T10:41:30.757Z,19.61
2022-11-23T10:44:06.160Z,18.81
2022-11-23T10:46:39.457Z,20.06
2022-11-23T10:49:16.004Z,20.57
2022-11-23T10:51:50.457Z,21.47
2022-11-23T10:54:21.346Z,22.01
2022-11-23T10:56:51.251Z,21.36
2022-11-23T10:59:34.723Z,21.48
2022-11-23T11:02:21.029Z,21.70
2022-11-23T11:04:54.440Z,22.84
2022-11-23T11:07:27.408Z,23.19
2022-11-23T11:09:59.606Z,22.56
2022-11-23T11:12:29.434Z,21.49
2022-11-23T11:15:11.176Z,21.60
2022-11-23T11:17:39.980Z,22.14
2022-11-23T11:20:22.766Z,21.80
2022-11-23T11:22:50.809Z,23.33
2022-11-23T11:25:28.908Z,23.61
2022-11-23T11:28:01.915Z,22.56
2022-11-23T11:30:34.470Z,21.79
2022-11-23T11:33:06.777Z,22.24
2022-11-23T11:35:38.280Z,23.36
2022-11-23T11:38:12.955Z,23.21
2022-11-23T11:40:45.486Z,23.68
2022-11-23T11:43:17.221Z,24.38
2022-11-23T11:46:21.425Z,23.74
2022-11-23T11:48:39.324Z,23.47
2022-11-23T11:51:09.128Z,23.78
2022-11-23T11:56:07.041Z,22.38
2022-11-23T11:58:42.955Z,22.79
2022-11-23T12:01:18.633Z,22.95
2022-11-23T12:03:51.082Z,24.31
2022-11-23T12:06:26.452Z,23.51
2022-11-23T12:08:59.539Z,22.56
2022-11-23T12:11:27.457Z,22.96
2022-11-23T12:14:01.288Z,23.67
2022-11-23T12:16:35.251Z,24.51
2022-11-23T12:19:14.713Z,23.99
2022-11-23T12:22:03.853Z,23.22
2022-11-23T12:24:38.724Z,24.18
2022-11-23T12:27:12.963Z,25.66
2022-11-23T12:30:05.921Z,27.03
2022-11-23T12:32:41.889Z,26.14
2022-11-23T12:35:31.328Z,25.04
2022-11-23T12:38:06.718Z,23.25
2022-11-23T12:40:49.140Z,23.62
2022-11-23T12:43:21.710Z,24.24
2022-11-23T12:46:05.170Z,23.67
2022-11-23T12:48:46.470Z,23.46
2022-11-23T12:51:21.224Z,24.35
2022-11-23T12:53:55.480Z,24.44
2022-11-23T12:56:32.285Z,23.90
2022-11-23T12:59:00.606Z,21.82
2022-11-23T13:01:32.378Z,22.80
2022-11-23T13:04:15.764Z,23.74
2022-11-23T13:07:26.950Z,22.58
2022-11-23T13:09:56.678Z,23.20
2022-11-23T13:12:32.472Z,22.49
2022-11-23T13:15:04.603Z,22.72
2022-11-23T13:17:37.165Z,21.99
2022-11-23T13:20:24.400Z,22.60
2022-11-23T13:22:52.644Z,21.94
2022-11-23T13:25:23.625Z,21.05
2022-11-23T13:28:02.431Z,19.75
2022-11-23T13:30:52.332Z,20.43
2022-11-23T13:33:32.823Z,20.46
2022-11-23T13:36:09.421Z,20.52
2022-11-23T13:38:44.480Z,20.82
2022-11-23T13:41:33.496Z,20.23
2022-11-23T13:44:12.862Z,20.93
2022-11-23T13:46:41.018Z,20.04
2022-11-23T13:49:30.303Z,18.13
2022-11-23T13:52:05.956Z,18.91
2022-11-23T13:54:34.702Z,19.27
2022-11-23T13:57:03.553Z,19.78
2022-11-23T13:59:34.971Z,19.22
2022-11-23T14:02:30.108Z,19.25
2022-11-23T14:05:17.236Z,18.97
2022-11-23T14:07:46.528Z,18.70
2022-11-23T14:10:18.968Z,18.75
2022-11-23T14:12:50.501Z,19.31
2022-11-23T14:15:21.004Z,19.51
2022-11-23T14:18:03.272Z,19.56
2022-11-23T14:20:46.587Z,20.12
2022-11-23T14:23:29.032Z,19.38
2022-11-23T14:26:01.076Z,18.65
2022-11-23T14:28:35.732Z,18.77
2022-11-23T14:31:13.863Z,18.86
2022-11-23T14:33:46.284Z,18.61
2022-11-23T14:36:22.033Z,17.74
2022-11-23T14:39:08.717Z,17.18
2022-11-23T14:41:37.455Z,16.40
2022-11-23T14:44:07.117Z,15.89
2022-11-23T14:46:37.250Z,15.77
2022-11-23T14:49:06.912Z,14.97
2022-11-23T14:51:37.029Z,13.86
2022-11-23T14:54:13.258Z,13.08
2022-11-23T14:56:44.093Z,12.18
2022-11-23T14:59:20.862Z,11.55
2022-11-23T15:01:52.886Z,11.13
2022-11-23T15:04:25.336Z,10.90
2022-11-23T15:06:57.055Z,10.82
2022-11-23T15:09:32.973Z,10.56
2022-11-23T15:12:07.059Z,10.38
2022-11-23T15:14:35.815Z,10.25
2022-11-23T15:17:18.957Z,10.09
2022-11-23T15:19:54.483Z,10.06
2022-11-23T15:22:23.349Z,10.02
2022-11-23T15:24:52.991Z,10.07
2022-11-23T15:27:24.561Z,10.23
2022-11-23T15:29:54.434Z,10.26
2022-11-23T15:32:34.441Z,10.06
2022-11-23T15:35:04.129Z,9.87
2022-11-23T15:37:33.804Z,9.84
2022-11-23T15:40:02.146Z,9.87
2022-11-23T15:42:30.532Z,9.75
2022-11-23T15:44:58.921Z,9.84
2022-11-23T15:47:30.114Z,9.81
2022-11-23T15:50:03.237Z,9.75
2022-11-23T15:52:34.892Z,9.76
2022-11-23T15:55:08.805Z,9.60
2022-11-23T15:57:39.530Z,9.47
2022-11-23T16:00:09.510Z,9.21
2022-11-23T16:02:41.642Z,9.37
2022-11-23T16:05:15.127Z,9.68
2022-11-23T16:07:51.019Z,9.83
2022-11-23T16:10:20.473Z,9.91
2022-11-23T16:12:50.517Z,10.01
2022-11-23T16:15:33.360Z,10.05
2022-11-23T16:18:04.938Z,10.10
2022-11-23T16:20:33.441Z,9.99
2022-11-23T16:23:01.643Z,10.21
2022-11-23T16:25:31.540Z,10.13
2022-11-23T16:28:00.352Z,10.05
2022-11-23T16:30:41.611Z,10.26
2022-11-23T16:33:16.835Z,10.53
2022-11-23T16:35:49.901Z,10.37
2022-11-23T16:38:18.277Z,10.32
2022-11-23T16:40:48.381Z,10.43
2022-11-23T16:43:17.479Z,10.59
2022-11-23T16:45:47.176Z,10.64
2022-11-23T16:48:33.475Z,10.58
2022-11-23T16:51:02.676Z,10.71
2022-11-23T16:53:53.420Z,10.69
2022-11-23T16:56:21.425Z,10.85
2022-11-23T16:58:49.621Z,11.07
2022-11-23T17:01:19.687Z,11.22
2022-11-23T17:03:47.971Z,11.36
2022-11-23T17:06:23.784Z,11.41
2022-11-23T17:08:59.375Z,11.54
2022-11-23T17:11:34.724Z,11.61
2022-11-23T17:14:03.473Z,11.60
2022-11-23T17:16:33.588Z,11.55
2022-11-23T17:19:05.700Z,11.36
2022-11-23T17:21:35.314Z,11.16
2022-11-23T17:24:05.290Z,10.94
2022-11-23T17:26:35.086Z,10.45
2022-11-23T17:29:03.702Z,9.73
2022-11-23T17:31:33.306Z,9.34
2022-11-23T17:34:02.332Z,9.05
2022-11-23T18:02:16.363Z,8.22
2022-11-23T18:04:44.387Z,8.36
2022-11-23T18:07:13.965Z,8.34
2022-11-23T18:09:42.199Z,8.39
2022-11-23T18:12:10.553Z,8.40
2022-11-23T18:14:39.043Z,8.26
2022-11-23T18:17:07.497Z,8.32
2022-11-23T18:19:37.184Z,8.43
2022-11-23T18:22:05.268Z,8.63
2022-11-23T18:24:33.297Z,8.87
2022-11-23T18:27:00.950Z,9.04
2022-11-23T18:29:28.848Z,9.18
2022-11-23T18:31:56.805Z,9.34
2022-11-23T18:34:24.994Z,9.39
2022-11-23T18:36:56.853Z,9.38
2022-11-23T18:39:24.984Z,9.43
2022-11-23T18:41:52.771Z,9.42
2022-11-23T18:44:20.743Z,9.54
2022-11-23T18:46:49.496Z,9.52
2022-11-23T18:49:17.395Z,9.36
2022-11-23T18:51:46.595Z,8.95
2022-11-23T18:54:15.764Z,8.88
2022-11-23T18:56:45.422Z,8.95
2022-11-23T18:59:35.030Z,9.19
2022-11-23T19:02:02.225Z,9.33
2022-11-23T19:04:32.592Z,9.30
2022-11-23T19:07:00.374Z,9.50
2022-11-23T19:09:29.565Z,9.29
2022-11-23T19:11:57.423Z,9.37
2022-11-23T19:14:25.022Z,9.50
2022-11-23T19:16:52.829Z,9.46
2022-11-23T19:19:21.034Z,9.45
2022-11-23T19:21:48.889Z,9.54
2022-11-23T19:24:17.312Z,9.52
2022-11-23T19:26:47.036Z,9.55
2022-11-23T19:29:14.846Z,9.48
2022-11-23T19:31:43.031Z,9.38
2022-11-23T19:34:14.822Z,9.44
2022-11-23T19:36:43.122Z,9.45
2022-11-23T19:39:11.376Z,9.39
2022-11-23T19:41:39.172Z,9.49
2022-11-23T19:44:10.507Z,9.45
2022-11-23T19:46:38.183Z,9.46
2022-11-23T19:49:07.093Z,9.41
2022-11-23T19:51:35.225Z,9.20
2022-11-23T20:02:59.998Z,9.26
2022-11-23T20:05:29.412Z,9.05
2022-11-23T20:07:59.800Z,9.04
2022-11-23T20:10:27.676Z,9.00
2022-11-23T20:12:55.432Z,8.77
2022-11-23T20:15:24.212Z,8.58
2022-11-23T20:17:52.998Z,8.44
2022-11-23T20:20:20.857Z,8.62
2022-11-23T20:22:49.926Z,8.56
2022-11-23T20:25:18.764Z,8.59
2022-11-23T20:27:46.380Z,8.61
2022-11-23T20:30:14.188Z,8.66
2022-11-23T20:32:41.914Z,8.46
2022-11-23T20:35:10.821Z,8.38
2022-11-23T20:37:39.538Z,8.24
2022-11-23T20:40:10.272Z,8.14
2022-11-23T20:42:37.850Z,7.94
2022-11-23T20:45:05.892Z,7.85
2022-11-23T20:47:33.607Z,7.89
2022-11-23T20:50:01.373Z,7.78
2022-11-23T20:52:29.194Z,7.90
2022-11-23T20:54:57.057Z,8.05
2022-11-23T20:57:26.223Z,8.21
2022-11-23T20:59:54.677Z,8.02
2022-11-23T21:02:22.452Z,7.84
2022-11-23T21:04:51.075Z,7.77
2022-11-23T21:07:18.778Z,7.72
2022-11-23T21:09:48.935Z,7.71
2022-11-23T21:12:34.309Z,7.66
2022-11-23T21:15:03.440Z,7.48
2022-11-23T21:17:33.685Z,7.46
2022-11-23T21:20:02.177Z,7.37
2022-11-23T21:22:30.807Z,7.43
2022-11-23T21:24:58.468Z,7.39
2022-11-23T21:27:28.289Z,7.25
2022-11-23T21:29:55.885Z,7.28
2022-11-23T21:32:25.158Z,7.27
2022-11-23T21:34:52.995Z,7.29
2022-11-23T21:37:20.850Z,7.29
2022-11-23T21:39:53.014Z,7.33
2022-11-23T21:42:21.213Z,7.47
2022-11-23T21:44:49.290Z,7.74
2022-11-23T21:47:17.573Z,7.92
2022-11-23T21:49:47.773Z,7.93
2022-11-23T21:52:18.012Z,7.86
2022-11-23T21:54:49.158Z,7.57
2022-11-23T21:57:17.640Z,7.48
2022-11-23T21:59:45.315Z,7.49
2022-11-23T22:02:13.315Z,7.40
2022-11-23T22:04:40.969Z,7.39
2022-11-23T22:07:10.133Z,7.32
2022-11-23T22:09:38.988Z,7.56
2022-11-23T22:12:07.901Z,7.71
2022-11-23T22:14:35.850Z,7.80
2022-11-23T22:17:04.155Z,7.89
2022-11-23T22:19:34.582Z,8.06
2022-11-23T22:22:02.247Z,8.18
2022-11-23T22:24:31.794Z,8.30
2022-11-23T22:26:59.820Z,8.39
2022-11-23T22:29:27.447Z,8.31
2022-11-23T22:31:55.349Z,8.35
2022-11-23T22:34:48.348Z,8.48
2022-11-23T22:37:16.042Z,8.47
2022-11-23T22:40:02.813Z,8.42
2022-11-23T22:42:59.297Z,8.40
2022-11-23T22:45:28.193Z,8.45
2022-11-23T22:48:10.414Z,8.59
2022-11-23T22:50:43.075Z,8.57
2022-11-23T22:53:41.449Z,8.35
2022-11-23T22:56:54.301Z,8.17
2022-11-23T22:59:28.108Z,8.18
2022-11-23T23:02:08.559Z,8.13
2022-11-23T23:05:13.593Z,8.06
2022-11-23T23:11:29.150Z,7.81
2022-11-23T23:14:28.723Z,7.72
2022-11-23T23:17:17.674Z,7.79
2022-11-23T23:19:59.078Z,7.81
2022-11-23T23:22:36.682Z,7.81
2022-11-23T23:25:07.589Z,7.65
2022-11-23T23:27:35.645Z,7.63
2022-11-23T23:30:05.042Z,7.59
2022-11-23T23:32:33.083Z,7.54
2022-11-23T23:35:00.802Z,7.63
2022-11-23T23:37:28.434Z,7.60
2022-11-23T23:39:56.261Z,7.68
2022-11-23T23:42:25.014Z,7.63
2022-11-23T23:44:52.676Z,7.48
2022-11-23T23:47:21.962Z,7.39
2022-11-23T23:49:49.938Z,7.19
2022-11-23T23:52:18.813Z,7.18
2022-11-23T23:54:46.708Z,7.19
2022-11-23T23:57:14.492Z,7.22
2022-11-23T23:59:42.242Z,7.26
